createdAt,value
2018-07-12T00:00:03.757Z,30.08
2018-07-12T00:01:06.259Z,29.48
2018-07-12T00:02:08.838Z,26.90
2018-07-12T00:03:11.198Z,27.10
2018-07-12T00:04:13.492Z,28.02
2018-07-12T00:05:15.822Z,28.90
2018-07-12T00:06:18.135Z,28.10
2018-07-12T00:07:20.478Z,30.20
2018-07-12T00:08:22.823Z,32.88
2018-07-12T00:09:25.147Z,37.25
2018-07-12T00:10:27.604Z,36.48
2018-07-12T00:11:30.790Z,33.05
2018-07-12T00:12:33.085Z,33.75
2018-07-12T00:13:35.489Z,35.05
2018-07-12T00:14:37.857Z,35.75
2018-07-12T00:15:40.216Z,35.68
2018-07-12T00:16:42.617Z,39.40
2018-07-12T00:17:44.914Z,41.95
2018-07-12T00:18:47.242Z,40.30
2018-07-12T00:19:49.573Z,39.40
2018-07-12T00:20:51.916Z,35.05
2018-07-12T00:21:54.654Z,31.25
2018-07-12T00:22:56.964Z,34.30
2018-07-12T00:23:59.337Z,32.60
2018-07-12T00:25:01.661Z,34.73
2018-07-12T00:26:03.976Z,35.35
2018-07-12T00:27:06.278Z,36.33
2018-07-12T00:28:08.617Z,32.60
2018-07-12T00:29:10.982Z,34.65
2018-07-12T00:30:13.308Z,34.35
2018-07-12T00:31:15.879Z,31.97
2018-07-12T00:32:18.188Z,32.53
2018-07-12T00:33:20.567Z,34.15
2018-07-12T00:34:23.030Z,32.55
2018-07-12T00:35:25.405Z,36.50
2018-07-12T00:36:27.699Z,41.90
2018-07-12T00:37:30.000Z,42.17
2018-07-12T00:38:32.316Z,38.67
2018-07-12T00:39:34.646Z,43.42
2018-07-12T00:40:36.958Z,43.28
2018-07-12T00:41:39.273Z,47.13
2018-07-12T00:42:41.622Z,46.65
2018-07-12T00:43:43.929Z,51.33
2018-07-12T00:44:46.253Z,55.90
2018-07-12T00:45:48.615Z,53.52
2018-07-12T00:46:50.921Z,53.85
2018-07-12T00:47:53.240Z,52.62
2018-07-12T00:48:55.573Z,54.13
2018-07-12T00:49:57.900Z,56.42
2018-07-12T00:51:00.210Z,60.33
2018-07-12T00:52:02.538Z,57.73
2018-07-12T00:53:04.851Z,52.35
2018-07-12T00:54:07.154Z,46.88
2018-07-12T00:55:09.473Z,48.02
2018-07-12T00:56:11.813Z,46.33
2018-07-12T00:57:14.344Z,50.83
2018-07-12T00:58:16.709Z,43.33
2018-07-12T00:59:19.096Z,49.90
2018-07-12T01:00:21.434Z,49.35
2018-07-12T01:01:23.747Z,42.20
2018-07-12T01:02:26.145Z,45.75
2018-07-12T01:03:28.500Z,42.95
2018-07-12T01:04:30.819Z,43.98
2018-07-12T01:05:33.128Z,50.17
2018-07-12T01:06:36.118Z,49.42
2018-07-12T01:07:38.428Z,46.08
2018-07-12T01:08:40.959Z,45.75
2018-07-12T01:09:43.256Z,40.33
2018-07-12T01:10:45.595Z,44.30
2018-07-12T01:11:48.226Z,44.20
2018-07-12T01:12:50.513Z,33.25
2018-07-12T01:13:52.811Z,37.53
2018-07-12T01:14:55.119Z,35.15
2018-07-12T01:15:57.452Z,38.05
2018-07-12T01:16:59.792Z,37.30
2018-07-12T01:18:02.104Z,38.35
2018-07-12T01:19:04.416Z,32.88
2018-07-12T01:20:06.730Z,40.15
2018-07-12T01:21:09.124Z,34.25
2018-07-12T01:22:11.451Z,36.60
2018-07-12T01:23:13.804Z,38.33
2018-07-12T01:24:16.103Z,37.10
2018-07-12T01:25:18.423Z,35.43
2018-07-12T01:26:20.752Z,35.55
2018-07-12T01:27:23.076Z,33.90
2018-07-12T01:28:25.546Z,38.42
2018-07-12T01:29:27.936Z,42.00
2018-07-12T01:30:30.249Z,38.95
2018-07-12T01:31:32.596Z,41.15
2018-07-12T01:32:34.965Z,35.10
2018-07-12T01:33:37.273Z,37.03
2018-07-12T01:34:39.592Z,40.67
2018-07-12T01:35:41.890Z,42.45
2018-07-12T01:36:44.391Z,42.93
2018-07-12T01:37:47.368Z,39.18
2018-07-12T01:38:49.660Z,41.90
2018-07-12T01:39:52.010Z,47.40
2018-07-12T01:40:54.366Z,46.55
2018-07-12T01:41:56.829Z,42.10
2018-07-12T01:42:59.143Z,48.80
2018-07-12T01:44:01.499Z,46.83
2018-07-12T01:45:04.134Z,44.08
2018-07-12T01:46:06.748Z,52.10
2018-07-12T01:47:09.091Z,54.25
2018-07-12T01:48:11.440Z,53.50
2018-07-12T01:49:13.739Z,52.80
2018-07-12T01:50:16.250Z,57.23
2018-07-12T01:51:19.502Z,53.90
2018-07-12T01:52:22.135Z,52.17
2018-07-12T01:53:24.664Z,54.23
2018-07-12T01:54:26.967Z,59.58
2018-07-12T01:55:29.589Z,60.40
2018-07-12T01:56:32.220Z,63.30
2018-07-12T01:57:34.609Z,60.65
2018-07-12T01:58:36.922Z,58.15
2018-07-12T01:59:39.238Z,53.85
2018-07-12T02:00:41.808Z,57.30
2018-07-12T02:01:44.048Z,53.58
2018-07-12T02:02:46.794Z,57.45
2018-07-12T02:03:49.194Z,64.12
2018-07-12T02:04:51.480Z,55.45
2018-07-12T02:05:53.843Z,57.95
2018-07-12T02:06:56.154Z,53.85
2018-07-12T02:07:58.445Z,56.60
2018-07-12T02:09:00.757Z,45.55
2018-07-12T02:10:03.332Z,53.40
2018-07-12T02:11:05.643Z,50.85
2018-07-12T02:12:08.029Z,44.33
2018-07-12T02:13:10.450Z,44.75
2018-07-12T02:14:13.753Z,48.05
2018-07-12T02:15:16.147Z,50.98
2018-07-12T02:16:18.461Z,49.05
2018-07-12T02:17:22.246Z,51.63
2018-07-12T02:18:24.540Z,50.58
2018-07-12T02:19:27.209Z,46.65
2018-07-12T02:20:29.520Z,48.78
2018-07-12T02:21:32.045Z,45.25
2018-07-12T02:22:34.366Z,52.20
2018-07-12T02:23:36.810Z,52.55
2018-07-12T02:24:39.160Z,43.45
2018-07-12T02:25:41.457Z,53.80
2018-07-12T02:26:43.799Z,52.85
2018-07-12T02:27:46.277Z,50.12
2018-07-12T02:28:48.565Z,48.28
2018-07-12T02:29:50.908Z,49.45
2018-07-12T02:30:53.199Z,52.05
2018-07-12T02:31:55.507Z,52.45
2018-07-12T02:32:57.826Z,43.17
2018-07-12T02:34:00.291Z,49.20
2018-07-12T02:35:02.987Z,55.20
2018-07-12T02:36:05.999Z,46.02
2018-07-12T02:37:08.314Z,52.43
2018-07-12T02:38:10.864Z,50.48
2018-07-12T02:39:13.243Z,46.13
2018-07-12T02:40:15.560Z,51.68
2018-07-12T02:41:18.113Z,56.15
2018-07-12T02:42:21.004Z,52.98
2018-07-12T02:43:23.307Z,53.45
2018-07-12T02:44:25.690Z,50.50
2018-07-12T02:45:28.118Z,56.73
2018-07-12T02:46:30.426Z,56.28
2018-07-12T02:47:32.734Z,69.25
2018-07-12T02:48:35.226Z,51.35
2018-07-12T02:49:37.521Z,52.08
2018-07-12T02:50:39.860Z,51.65
2018-07-12T02:51:42.155Z,54.05
2018-07-12T02:52:44.456Z,53.50
2018-07-12T02:53:46.777Z,51.80
2018-07-12T02:54:49.078Z,57.05
2018-07-12T02:55:51.396Z,53.40
2018-07-12T02:56:53.742Z,52.88
2018-07-12T02:57:56.057Z,49.23
2018-07-12T02:58:58.450Z,57.33
2018-07-12T03:00:00.766Z,58.90
2018-07-12T03:01:03.085Z,58.38
2018-07-12T03:02:05.393Z,55.20
2018-07-12T03:03:07.708Z,54.48
2018-07-12T03:04:10.017Z,56.28
2018-07-12T03:05:12.360Z,52.45
2018-07-12T03:06:14.696Z,57.15
2018-07-12T03:07:17.021Z,55.23
2018-07-12T03:08:19.355Z,53.80
2018-07-12T03:09:22.180Z,56.02
2018-07-12T03:10:24.688Z,53.48
2018-07-12T03:11:27.358Z,60.60
2018-07-12T03:12:30.121Z,51.80
2018-07-12T03:13:33.874Z,58.17
2018-07-12T03:14:37.729Z,56.33
2018-07-12T03:15:41.566Z,59.15
2018-07-12T03:16:44.402Z,62.55
2018-07-12T03:17:46.722Z,56.65
2018-07-12T03:18:49.902Z,56.70
2018-07-12T03:19:52.250Z,52.38
2018-07-12T03:20:54.596Z,55.30
2018-07-12T03:21:56.981Z,56.30
2018-07-12T03:22:59.308Z,62.90
2018-07-12T03:24:01.620Z,57.13
2018-07-12T03:25:03.961Z,58.68
2018-07-12T03:26:07.798Z,62.08
2018-07-12T03:27:10.314Z,59.60
2018-07-12T03:28:12.712Z,62.95
2018-07-12T03:29:15.038Z,59.83
2018-07-12T03:30:17.341Z,55.60
2018-07-12T03:31:19.759Z,61.25
2018-07-12T03:32:22.058Z,56.30
2018-07-12T03:33:24.346Z,64.05
2018-07-12T03:34:26.665Z,66.20
2018-07-12T03:35:29.005Z,69.82
2018-07-12T03:36:31.290Z,59.20
2018-07-12T03:37:33.599Z,58.25
2018-07-12T03:38:35.930Z,56.58
2018-07-12T03:39:38.236Z,60.08
2018-07-12T03:40:40.598Z,59.38
2018-07-12T03:41:42.901Z,63.28
2018-07-12T03:42:45.211Z,50.95
2018-07-12T03:43:47.525Z,59.30
2018-07-12T03:44:49.867Z,53.83
2018-07-12T03:45:52.218Z,51.77
2018-07-12T03:46:54.570Z,64.67
2018-07-12T03:47:56.900Z,62.13
2018-07-12T03:48:59.218Z,61.18
2018-07-12T03:50:01.530Z,62.20
2018-07-12T03:51:04.182Z,56.15
2018-07-12T03:52:06.504Z,64.40
2018-07-12T03:53:08.828Z,66.47
2018-07-12T03:54:11.264Z,57.13
2018-07-12T03:55:13.756Z,59.80
2018-07-12T03:56:16.109Z,49.23
2018-07-12T03:57:18.425Z,58.58
2018-07-12T03:58:20.742Z,56.77
2018-07-12T03:59:23.048Z,52.05
2018-07-12T04:00:25.379Z,53.95
2018-07-12T04:01:27.686Z,50.35
2018-07-12T04:02:30.038Z,49.90
2018-07-12T04:03:32.360Z,54.73
2018-07-12T04:04:34.675Z,47.33
2018-07-12T04:05:36.994Z,48.20
2018-07-12T04:06:39.285Z,51.37
2018-07-12T04:07:41.598Z,48.87
2018-07-12T04:08:43.913Z,43.65
2018-07-12T04:09:46.284Z,44.15
2018-07-12T04:10:48.675Z,50.05
2018-07-12T04:11:51.031Z,52.33
2018-07-12T04:12:53.364Z,56.92
2018-07-12T04:13:55.773Z,59.45
2018-07-12T04:14:58.102Z,52.67
2018-07-12T04:16:00.428Z,59.80
2018-07-12T04:17:02.741Z,46.33
2018-07-12T04:18:05.061Z,40.23
2018-07-12T04:19:07.397Z,38.58
2018-07-12T04:20:09.992Z,29.82
2018-07-12T04:21:12.330Z,34.50
2018-07-12T04:22:14.660Z,28.45
2018-07-12T04:23:16.998Z,22.55
2018-07-12T04:24:19.313Z,22.30
2018-07-12T04:25:21.950Z,16.62
2018-07-12T04:26:24.263Z,20.37
2018-07-12T04:27:26.881Z,19.37
2018-07-12T04:28:30.022Z,20.52
2018-07-12T04:29:32.608Z,16.87
2018-07-12T04:30:35.043Z,19.35
2018-07-12T04:31:37.371Z,16.55
2018-07-12T04:32:39.694Z,18.67
2018-07-12T04:33:42.005Z,12.98
2018-07-12T04:34:44.654Z,18.12
2018-07-12T04:35:46.986Z,15.70
2018-07-12T04:36:49.794Z,14.40
2018-07-12T04:37:52.420Z,16.80
2018-07-12T04:38:54.809Z,15.63
2018-07-12T04:39:57.109Z,14.95
2018-07-12T04:40:59.454Z,14.93
2018-07-12T04:42:01.872Z,14.68
2018-07-12T04:43:04.180Z,15.10
2018-07-12T04:44:07.285Z,16.05
2018-07-12T04:45:09.624Z,13.50
2018-07-12T04:46:12.228Z,15.18
2018-07-12T04:47:14.842Z,13.83
2018-07-12T04:48:17.156Z,19.17
2018-07-12T04:49:20.258Z,11.88
2018-07-12T04:50:22.618Z,12.10
2018-07-12T04:51:24.947Z,13.93
2018-07-12T04:52:27.297Z,13.53
2018-07-12T04:53:29.738Z,13.55
2018-07-12T04:54:32.073Z,14.83
2018-07-12T04:55:34.394Z,13.70
2018-07-12T04:56:37.098Z,15.30
2018-07-12T04:57:39.561Z,13.50
2018-07-12T04:58:41.884Z,9.88
2018-07-12T04:59:44.194Z,14.43
2018-07-12T05:00:46.525Z,12.50
2018-07-12T05:01:49.438Z,12.37
2018-07-12T05:02:52.217Z,12.20
2018-07-12T05:03:54.537Z,13.95
2018-07-12T05:04:56.843Z,11.08
2018-07-12T05:05:59.166Z,15.50
2018-07-12T05:07:01.482Z,16.35
2018-07-12T05:08:03.966Z,16.17
2018-07-12T05:09:07.612Z,13.00
2018-07-12T05:10:10.077Z,17.27
2018-07-12T05:11:12.406Z,10.65
2018-07-12T05:12:14.803Z,12.03
2018-07-12T05:13:17.122Z,14.45
2018-07-12T05:14:19.448Z,13.38
2018-07-12T05:15:21.815Z,11.53
2018-07-12T05:16:24.413Z,12.23
2018-07-12T05:17:26.737Z,17.77
2018-07-12T05:18:29.143Z,11.85
2018-07-12T05:19:31.450Z,13.00
2018-07-12T05:20:33.760Z,12.40
2018-07-12T05:21:36.115Z,13.32
2018-07-12T05:22:38.587Z,11.80
2018-07-12T05:23:41.515Z,12.23
2018-07-12T05:24:43.985Z,14.95
2018-07-12T05:25:46.303Z,11.33
2018-07-12T05:26:48.859Z,13.22
2018-07-12T05:27:51.240Z,11.88
2018-07-12T05:28:53.861Z,12.18
2018-07-12T05:29:56.209Z,13.45
2018-07-12T05:30:58.537Z,11.12
2018-07-12T05:32:00.847Z,11.80
2018-07-12T05:33:03.186Z,13.62
2018-07-12T05:34:05.517Z,9.63
2018-07-12T05:35:07.862Z,14.98
2018-07-12T05:36:42.358Z,14.47
2018-07-12T05:37:46.025Z,12.05
2018-07-12T05:38:49.643Z,12.15
2018-07-12T05:39:53.144Z,17.02
2018-07-12T05:40:56.753Z,10.80
2018-07-12T05:42:00.314Z,13.00
2018-07-12T05:43:03.865Z,11.88
2018-07-12T05:44:07.408Z,10.08
2018-07-12T05:45:10.617Z,9.98
2018-07-12T05:46:14.205Z,11.00
2018-07-12T05:47:17.894Z,10.82
2018-07-12T05:48:21.125Z,10.38
2018-07-12T05:49:24.697Z,11.80
2018-07-12T05:50:28.202Z,13.78
2018-07-12T05:51:31.748Z,14.45
2018-07-12T05:52:35.297Z,12.90
2018-07-12T05:53:39.644Z,11.45
2018-07-12T05:54:43.123Z,12.95
2018-07-12T05:55:46.737Z,13.68
2018-07-12T05:56:50.270Z,11.68
2018-07-12T05:57:53.831Z,11.33
2018-07-12T05:58:57.295Z,14.90
2018-07-12T06:00:00.841Z,10.60
2018-07-12T06:01:10.519Z,12.35
2018-07-12T06:02:18.484Z,11.57
2018-07-12T06:03:23.467Z,12.65
2018-07-12T06:04:26.943Z,11.48
2018-07-12T06:05:30.885Z,11.78
2018-07-12T06:06:34.474Z,11.18
2018-07-12T06:07:38.158Z,9.48
2018-07-12T06:08:41.797Z,13.48
2018-07-12T06:09:45.315Z,8.65
2018-07-12T06:10:48.858Z,12.98
2018-07-12T06:11:53.081Z,11.00
2018-07-12T06:12:57.382Z,8.65
2018-07-12T06:14:00.997Z,15.53
2018-07-12T06:15:05.288Z,14.33
2018-07-12T06:16:08.991Z,14.75
2018-07-12T06:17:12.687Z,12.00
2018-07-12T06:18:16.185Z,9.55
2018-07-12T06:19:19.712Z,12.20
2018-07-12T06:20:23.343Z,11.33
2018-07-12T06:21:27.533Z,13.00
2018-07-12T06:22:30.988Z,13.53
2018-07-12T06:23:35.735Z,12.13
2018-07-12T06:24:39.409Z,12.25
2018-07-12T06:25:42.946Z,11.90
2018-07-12T06:26:46.431Z,8.90
2018-07-12T06:27:50.154Z,13.35
2018-07-12T06:28:54.068Z,9.68
2018-07-12T06:29:57.618Z,10.85
2018-07-12T06:31:01.194Z,10.23
2018-07-12T06:32:05.111Z,14.80
2018-07-12T06:33:09.346Z,13.08
2018-07-12T06:34:13.125Z,15.98
2018-07-12T06:35:16.763Z,14.28
2018-07-12T06:36:21.256Z,12.73
2018-07-12T06:37:24.744Z,10.63
2018-07-12T06:38:28.796Z,15.40
2018-07-12T06:39:32.525Z,10.23
2018-07-12T06:40:36.230Z,12.47
2018-07-12T06:41:40.046Z,9.78
2018-07-12T06:42:43.567Z,11.68
2018-07-12T06:43:47.167Z,13.15
2018-07-12T06:44:50.698Z,9.00
2018-07-12T06:45:54.205Z,14.15
2018-07-12T06:48:04.167Z,9.90
2018-07-12T06:49:07.682Z,11.68
2018-07-12T06:50:11.367Z,10.30
2018-07-12T06:51:14.878Z,9.83
2018-07-12T06:52:18.547Z,9.58
2018-07-12T06:53:22.075Z,11.25
2018-07-12T06:54:25.589Z,9.55
2018-07-12T06:55:29.095Z,11.83
2018-07-12T06:56:33.317Z,12.25
2018-07-12T06:57:37.069Z,10.70
2018-07-12T06:58:40.628Z,11.55
2018-07-12T06:59:44.284Z,13.43
2018-07-12T07:00:47.966Z,12.33
2018-07-12T07:01:51.460Z,10.90
2018-07-12T07:02:55.155Z,12.05
2018-07-12T07:03:58.652Z,10.43
2018-07-12T07:05:02.476Z,11.55
2018-07-12T07:06:05.979Z,11.08
2018-07-12T07:07:10.191Z,9.08
2018-07-12T07:08:14.008Z,7.83
2018-07-12T07:09:17.266Z,11.45
2018-07-12T07:10:20.774Z,9.98
2018-07-12T07:11:24.366Z,10.30
2018-07-12T07:12:27.944Z,9.73
2018-07-12T07:13:31.695Z,11.20
2018-07-12T07:14:35.526Z,11.30
2018-07-12T07:15:39.246Z,10.75
2018-07-12T07:16:42.784Z,12.33
2018-07-12T07:17:46.488Z,7.95
2018-07-12T07:18:50.018Z,9.03
2018-07-12T07:19:53.488Z,9.70
2018-07-12T07:20:56.989Z,9.15
2018-07-12T07:22:00.517Z,10.80
2018-07-12T07:23:04.880Z,6.80
2018-07-12T07:24:08.535Z,7.42
2018-07-12T07:25:12.190Z,10.60
2018-07-12T07:26:15.968Z,10.53
2018-07-12T07:27:19.838Z,10.40
2018-07-12T07:28:23.439Z,8.80
2018-07-12T07:29:26.906Z,8.55
2018-07-12T07:30:30.513Z,10.65
2018-07-12T07:31:34.099Z,9.08
2018-07-12T07:32:37.669Z,11.68
2018-07-12T07:33:41.280Z,12.25
2018-07-12T07:34:44.880Z,10.00
2018-07-12T07:35:48.429Z,10.43
2018-07-12T07:36:52.014Z,7.58
2018-07-12T07:37:55.794Z,9.18
2018-07-12T07:38:59.289Z,9.20
2018-07-12T07:40:03.021Z,9.20
2018-07-12T07:41:06.974Z,8.53
2018-07-12T07:42:10.590Z,8.55
2018-07-12T07:43:14.272Z,10.23
2018-07-12T07:44:17.842Z,10.32
2018-07-12T07:45:21.359Z,9.68
2018-07-12T07:46:25.011Z,9.58
2018-07-12T07:47:28.540Z,9.95
2018-07-12T07:48:32.196Z,10.63
2018-07-12T07:49:35.655Z,9.60
2018-07-12T07:50:39.260Z,11.30
2018-07-12T07:51:42.780Z,6.78
2018-07-12T07:52:46.274Z,13.13
2018-07-12T07:53:49.781Z,8.85
2018-07-12T07:54:53.789Z,6.72
2018-07-12T07:55:57.297Z,8.25
2018-07-12T07:57:00.887Z,10.38
2018-07-12T07:58:04.416Z,8.43
2018-07-12T07:59:07.964Z,7.97
2018-07-12T08:00:11.838Z,7.10
2018-07-12T08:01:15.424Z,6.85
2018-07-12T08:02:19.483Z,7.10
2018-07-12T08:03:23.015Z,6.90
2018-07-12T08:04:26.548Z,10.58
2018-07-12T08:05:30.073Z,8.80
2018-07-12T08:06:35.921Z,7.05
2018-07-12T08:07:40.565Z,6.58
2018-07-12T08:08:44.758Z,7.50
2018-07-12T08:09:48.256Z,7.85
2018-07-12T08:10:51.857Z,8.48
2018-07-12T08:11:56.239Z,12.78
2018-07-12T08:12:59.762Z,8.10
2018-07-12T08:14:03.934Z,7.33
2018-07-12T08:15:07.828Z,12.88
2018-07-12T08:16:11.638Z,6.40
2018-07-12T08:17:15.807Z,6.62
2018-07-12T08:18:19.323Z,8.40
2018-07-12T08:19:22.942Z,8.28
2018-07-12T08:20:26.454Z,7.33
2018-07-12T08:21:31.348Z,7.08
2018-07-12T08:22:34.810Z,8.03
2018-07-12T08:23:38.345Z,7.28
2018-07-12T08:24:42.791Z,6.22
2018-07-12T08:25:46.618Z,8.93
2018-07-12T08:26:50.886Z,8.58
2018-07-12T08:28:05.780Z,7.65
2018-07-12T08:29:09.584Z,8.05
2018-07-12T08:30:13.140Z,6.92
2018-07-12T08:31:16.657Z,6.50
2018-07-12T08:32:20.500Z,6.37
2018-07-12T08:33:24.247Z,7.05
2018-07-12T08:34:27.731Z,8.48
2018-07-12T08:35:31.218Z,7.22
2018-07-12T08:36:34.687Z,7.47
2018-07-12T08:37:38.273Z,6.40
2018-07-12T08:38:42.769Z,6.05
2018-07-12T08:39:46.310Z,6.17
2018-07-12T08:40:49.837Z,7.67
2018-07-12T08:41:53.753Z,5.03
2018-07-12T08:42:57.787Z,7.00
2018-07-12T08:44:01.377Z,5.17
2018-07-12T08:45:05.064Z,4.65
2018-07-12T08:46:09.394Z,7.30
2018-07-12T08:47:13.439Z,5.67
2018-07-12T08:48:17.348Z,8.03
2018-07-12T08:49:21.197Z,7.00
2018-07-12T08:50:24.794Z,6.90
2018-07-12T08:51:28.417Z,8.70
2018-07-12T08:52:32.126Z,6.75
2018-07-12T08:53:35.745Z,6.10
2018-07-12T08:54:39.913Z,5.30
2018-07-12T08:55:43.563Z,6.87
2018-07-12T08:56:46.979Z,7.15
2018-07-12T08:57:50.717Z,6.33
2018-07-12T08:58:54.409Z,5.03
2018-07-12T08:59:58.456Z,6.45
2018-07-12T09:01:02.085Z,6.67
2018-07-12T09:02:05.739Z,8.88
2018-07-12T09:03:09.301Z,5.05
2018-07-12T09:04:13.023Z,5.37
2018-07-12T09:05:17.481Z,5.37
2018-07-12T09:06:21.223Z,7.87
2018-07-12T09:07:25.024Z,7.62
2018-07-12T09:08:28.646Z,4.72
2018-07-12T09:09:34.138Z,6.00
2018-07-12T09:10:38.327Z,5.40
2018-07-12T09:11:41.826Z,7.03
2018-07-12T09:12:45.490Z,6.47
2018-07-12T09:13:49.445Z,6.15
2018-07-12T09:14:53.256Z,6.00
2018-07-12T09:15:57.456Z,6.72
2018-07-12T09:17:01.085Z,5.55
2018-07-12T09:18:04.711Z,5.45
2018-07-12T09:19:08.426Z,5.45
2018-07-12T09:20:12.198Z,5.47
2018-07-12T09:21:15.777Z,4.53
2018-07-12T09:22:19.441Z,7.50
2018-07-12T09:23:23.629Z,4.50
2018-07-12T09:24:27.188Z,5.92
2018-07-12T09:25:31.572Z,6.40
2018-07-12T09:26:35.164Z,10.08
2018-07-12T09:27:38.844Z,6.30
2018-07-12T09:28:43.055Z,6.37
2018-07-12T09:29:46.744Z,5.78
2018-07-12T09:30:50.893Z,4.33
2018-07-12T09:31:54.573Z,7.33
2018-07-12T09:32:58.428Z,7.42
2018-07-12T09:34:02.972Z,6.42
2018-07-12T09:35:06.493Z,6.67
2018-07-12T09:36:10.059Z,9.03
2018-07-12T09:37:13.603Z,4.78
2018-07-12T09:38:35.265Z,8.80
2018-07-12T09:39:38.873Z,4.80
2018-07-12T09:40:42.616Z,8.88
2018-07-12T09:41:47.361Z,6.47
2018-07-12T09:42:51.009Z,6.33
2018-07-12T09:43:54.605Z,6.03
2018-07-12T09:44:59.203Z,8.43
2018-07-12T09:46:02.803Z,9.98
2018-07-12T09:47:06.596Z,6.33
2018-07-12T09:48:11.076Z,5.90
2018-07-12T09:49:14.981Z,6.37
2018-07-12T09:50:18.439Z,7.30
2018-07-12T09:51:22.692Z,5.90
2018-07-12T09:52:32.828Z,5.47
2018-07-12T09:53:36.364Z,6.72
2018-07-12T09:54:39.900Z,7.12
2018-07-12T09:55:44.747Z,5.97
2018-07-12T09:56:59.495Z,4.35
2018-07-12T09:58:13.143Z,6.58
2018-07-12T09:59:17.293Z,7.28
2018-07-12T10:00:25.093Z,6.33
2018-07-12T10:01:34.194Z,9.88
2018-07-12T10:02:43.958Z,6.45
2018-07-12T10:03:49.182Z,7.42
2018-07-12T10:04:52.812Z,8.23
2018-07-12T10:05:57.757Z,8.10
2018-07-12T10:07:06.493Z,9.55
2018-07-12T10:08:15.484Z,9.70
2018-07-12T10:09:24.623Z,8.80
2018-07-12T10:10:31.872Z,10.25
2018-07-12T10:11:40.529Z,10.68
2018-07-12T10:12:49.424Z,7.30
2018-07-12T10:14:03.099Z,8.63
2018-07-12T10:15:10.479Z,8.68
2018-07-12T10:16:19.630Z,11.22
2018-07-12T10:17:28.931Z,10.32
2018-07-12T10:18:33.299Z,8.73
2018-07-12T10:19:36.964Z,8.53
2018-07-12T10:20:40.715Z,10.15
2018-07-12T10:21:44.966Z,9.73
2018-07-12T10:22:48.564Z,9.83
2018-07-12T10:23:51.813Z,11.33
2018-07-12T10:24:55.960Z,10.58
2018-07-12T10:26:00.226Z,9.05
2018-07-12T10:27:03.909Z,11.80
2018-07-12T10:28:07.554Z,10.32
2018-07-12T10:29:11.570Z,13.38
2018-07-12T10:30:15.885Z,9.28
2018-07-12T10:31:19.644Z,9.80
2018-07-12T10:32:23.144Z,10.38
2018-07-12T10:33:27.439Z,8.05
2018-07-12T10:34:31.837Z,8.50
2018-07-12T10:35:35.400Z,13.85
2018-07-12T10:36:38.932Z,7.90
2018-07-12T10:37:42.745Z,12.37
2018-07-12T10:38:46.261Z,8.33
2018-07-12T10:39:49.860Z,9.95
2018-07-12T10:40:53.359Z,9.68
2018-07-12T10:41:57.587Z,10.93
2018-07-12T10:43:01.415Z,9.08
2018-07-12T10:44:05.827Z,9.08
2018-07-12T10:45:09.711Z,9.50
2018-07-12T10:46:13.418Z,9.53
2018-07-12T10:47:17.019Z,10.72
2018-07-12T10:48:20.815Z,13.72
2018-07-12T10:49:24.715Z,10.50
2018-07-12T10:50:28.240Z,10.72
2018-07-12T10:51:31.849Z,10.88
2018-07-12T10:52:35.609Z,9.65
2018-07-12T10:53:39.191Z,10.55
2018-07-12T10:54:43.001Z,8.98
2018-07-12T10:55:46.671Z,9.03
2018-07-12T10:56:50.252Z,7.60
2018-07-12T10:57:53.910Z,9.60
2018-07-12T10:58:57.593Z,8.63
2018-07-12T11:00:01.170Z,10.98
2018-07-12T11:01:04.819Z,7.97
2018-07-12T11:02:08.427Z,6.85
2018-07-12T11:03:12.132Z,8.20
2018-07-12T11:04:16.864Z,9.65
2018-07-12T11:05:21.491Z,9.30
2018-07-12T11:06:25.182Z,9.88
2018-07-12T11:07:28.754Z,10.38
2018-07-12T11:08:32.359Z,7.67
2018-07-12T11:09:36.795Z,7.58
2018-07-12T11:10:40.824Z,10.10
2018-07-12T11:11:44.516Z,11.80
2018-07-12T11:12:58.573Z,11.18
2018-07-12T11:14:02.174Z,10.63
2018-07-12T11:15:05.729Z,8.43
2018-07-12T11:16:09.354Z,11.18
2018-07-12T11:17:14.013Z,8.25
2018-07-12T11:18:17.524Z,9.23
2018-07-12T11:19:21.128Z,10.65
2018-07-12T11:20:25.401Z,9.10
2018-07-12T11:21:29.142Z,8.63
2018-07-12T11:22:32.842Z,11.10
2018-07-12T11:23:36.389Z,11.53
2018-07-12T11:24:40.084Z,9.65
2018-07-12T11:25:44.529Z,10.30
2018-07-12T11:26:48.134Z,8.38
2018-07-12T11:27:51.676Z,14.47
2018-07-12T11:28:55.436Z,9.18
2018-07-12T11:29:59.695Z,13.20
2018-07-12T11:31:03.372Z,11.57
2018-07-12T11:32:08.424Z,11.45
2018-07-12T11:33:23.247Z,11.22
2018-07-12T11:34:27.512Z,9.58
2018-07-12T11:35:31.979Z,9.70
2018-07-12T11:36:35.628Z,7.67
2018-07-12T11:37:40.038Z,9.55
2018-07-12T11:38:44.600Z,7.97
2018-07-12T11:39:48.938Z,9.85
2018-07-12T11:40:52.737Z,9.88
2018-07-12T11:41:56.355Z,11.05
2018-07-12T11:43:00.217Z,13.98
2018-07-12T11:44:03.938Z,11.90
2018-07-12T11:45:07.566Z,10.85
2018-07-12T11:46:12.481Z,9.53
2018-07-12T11:47:16.138Z,14.25
2018-07-12T11:48:19.735Z,9.08
2018-07-12T11:49:23.395Z,9.20
2018-07-12T11:50:27.017Z,10.63
2018-07-12T11:51:33.711Z,9.93
2018-07-12T11:52:42.072Z,9.90
2018-07-12T11:53:47.122Z,9.93
2018-07-12T11:54:51.006Z,10.75
2018-07-12T11:55:54.839Z,8.85
2018-07-12T11:56:58.449Z,8.88
2018-07-12T11:58:02.143Z,9.83
2018-07-12T11:59:05.806Z,11.05
2018-07-12T12:00:10.140Z,9.78
2018-07-12T12:01:13.875Z,9.48
2018-07-12T12:02:17.961Z,10.85
2018-07-12T12:03:21.744Z,8.43
2018-07-12T12:04:25.370Z,8.93
2018-07-12T12:05:29.046Z,8.60
2018-07-12T12:06:33.659Z,10.58
2018-07-12T12:07:37.243Z,7.05
2018-07-12T12:08:40.806Z,10.50
2018-07-12T12:09:44.332Z,9.70
2018-07-12T12:10:48.696Z,8.08
2018-07-12T12:11:53.062Z,9.28
2018-07-12T12:12:56.700Z,7.17
2018-07-12T12:14:00.548Z,9.40
2018-07-12T12:15:04.702Z,8.73
2018-07-12T12:16:08.662Z,6.90
2018-07-12T12:17:12.337Z,9.73
2018-07-12T12:18:19.302Z,9.08
2018-07-12T12:19:23.084Z,7.97
2018-07-12T12:20:30.265Z,8.20
2018-07-12T12:21:33.963Z,8.70
2018-07-12T12:22:37.712Z,8.93
2018-07-12T12:23:41.279Z,7.67
2018-07-12T12:24:44.919Z,8.55
2018-07-12T12:25:48.639Z,7.00
2018-07-12T12:26:52.203Z,9.48
2018-07-12T12:27:56.504Z,9.55
2018-07-12T12:29:00.301Z,8.58
2018-07-12T12:30:04.528Z,6.55
2018-07-12T12:31:08.221Z,8.25
2018-07-12T12:32:12.531Z,8.10
2018-07-12T12:33:16.276Z,9.55
2018-07-12T12:34:19.998Z,10.88
2018-07-12T12:35:23.788Z,9.65
2018-07-12T12:36:27.440Z,9.85
2018-07-12T12:37:34.901Z,9.45
2018-07-12T12:39:50.608Z,9.08
2018-07-12T12:40:54.394Z,9.53
2018-07-12T12:41:59.524Z,6.53
2018-07-12T12:43:03.558Z,8.70
2018-07-12T12:44:07.427Z,7.53
2018-07-12T12:45:11.770Z,7.85
2018-07-12T12:46:15.670Z,7.12
2018-07-12T12:47:19.284Z,7.45
2018-07-12T12:48:23.256Z,9.23
2018-07-12T12:49:26.808Z,6.90
2018-07-12T12:50:30.533Z,8.88
2018-07-12T12:51:34.716Z,8.68
2018-07-12T12:52:38.268Z,9.80
2018-07-12T12:53:42.197Z,6.87
2018-07-12T12:54:46.565Z,9.25
2018-07-12T12:55:50.478Z,7.95
2018-07-12T12:56:54.405Z,7.55
2018-07-12T12:57:58.788Z,6.67
2018-07-12T12:59:02.896Z,5.40
2018-07-12T13:00:07.132Z,6.72
2018-07-12T13:01:11.006Z,6.65
2018-07-12T13:02:15.038Z,5.90
2018-07-12T13:03:18.573Z,8.45
2018-07-12T13:04:22.520Z,7.10
2018-07-12T13:05:26.443Z,6.55
2018-07-12T13:06:30.257Z,10.88
2018-07-12T13:07:33.992Z,6.72
2018-07-12T13:08:38.171Z,5.75
2018-07-12T13:09:41.892Z,9.05
2018-07-12T13:10:45.929Z,6.17
2018-07-12T13:11:49.472Z,4.60
2018-07-12T13:12:53.151Z,10.65
2018-07-12T13:13:56.774Z,9.68
2018-07-12T13:15:01.293Z,6.00
2018-07-12T13:16:05.147Z,5.85
2018-07-12T13:17:09.607Z,6.67
2018-07-12T13:18:13.518Z,6.80
2018-07-12T13:19:17.124Z,7.35
2018-07-12T13:20:20.886Z,7.95
2018-07-12T13:21:24.537Z,8.60
2018-07-12T13:22:28.318Z,8.25
2018-07-12T13:23:31.957Z,7.15
2018-07-12T13:24:35.688Z,6.83
2018-07-12T13:25:39.484Z,7.15
2018-07-12T13:26:43.010Z,7.17
2018-07-12T13:27:46.759Z,6.08
2018-07-12T13:28:50.275Z,4.60
2018-07-12T13:29:54.079Z,5.72
2018-07-12T13:30:58.246Z,5.87
2018-07-12T13:32:02.178Z,5.85
2018-07-12T13:33:06.569Z,6.05
2018-07-12T13:34:10.338Z,6.05
2018-07-12T13:35:14.210Z,5.87
2018-07-12T13:36:17.886Z,5.08
2018-07-12T13:37:21.715Z,4.62
2018-07-12T13:38:25.585Z,4.90
2018-07-12T13:39:29.524Z,5.87
2018-07-12T13:40:33.174Z,6.83
2018-07-12T13:41:36.968Z,4.25
2018-07-12T13:42:40.652Z,5.67
2018-07-12T13:43:44.465Z,5.17
2018-07-12T13:44:48.790Z,4.35
2018-07-12T13:45:52.998Z,7.95
2018-07-12T13:46:58.048Z,8.33
2018-07-12T13:48:01.975Z,5.00
2018-07-12T13:49:06.846Z,5.80
2018-07-12T13:50:10.795Z,7.20